Hlavní strana
METAR-TAF:

METAR-TAF

Letiště :

Dekalb-Peachtree Airport

Atlanta, Georgie, Spojené státy americké

zeměpisná šířka: 33-52-42N, zeměpisná délka: 084-17-53W, výška: 305 m

Aktuální stav počasí

Zpráva byla vytvořena před 8 minutami, v 10:53 UTC
Bezvětří
Teplota 19°C
Vlhkost vzduchu 100%
Tlak 1022 hPa
Viditelnost: 11.3 km
Jasno

METAR: KPDK 241053Z 00000KT 7SM CLR 19/19 A3018 RMK AO2 SLP203 T01940189

Čas: 07:01 (11:01 UTC)

Předpověď počasí

Zpráva byla vytvořena před 5 hodinami a 31 minutami, v 05:30 UTC
Předpověď platná od 24 v 06 UTC do 25 v 06 UTC
vítr z různých směrů 3 kt
Viditelnost: 10 km
Skoro jasno ve výšce 8000 ft
Od 24 v 1500 UTC
Západní vítr 5 kt
Viditelnost: 10 km
Skoro jasno ve výšce 4500 ft
Od 25 v 0100 UTC
Severní vítr kt
Viditelnost: 10 km
Skoro jasno ve výšce 6000 ft
Polojasno ve výšce 25000 ft

TAF: KPDK 240530Z 2406/2506 VRB03KT P6SM FEW080 FM241500 26005KT P6SM FEW045 FM250100 00000KT P6SM FEW060 SCT250

Stav a předpovědi počasí z více než 4 000 letišť (zprávy METAR a TAF).

Červené a žluté tečky na mapě představují dostupné meteorologické stanice.

Když kurzor umístíte na tečku, zobrazí se název stanice.

Pak kliknutím zobrazíte stav a předpověď počasí.

Chcete-li změnit mapu, kliknutím na zelené tlačítko se znaménkem +mapu přiblížíte, kliknutím na zelené tlačítko se znaménkem – mapu oddálíte a kliknutím na zelené šipky přejdete na sousední mapy.


METAR-TAF: